Detroit, Michigan
Traffic Map
Current Weather Conditions
Detroit, Michigan
Few Clouds
Few Clouds
77°
Feels Like: 78°
Wind Chill: 77° Ceiling: Unl
Heat Index: 78° Visibility: 12mi
Dew Point: 75° Wind: 8mph
Humidity: 94% Direction: 250° (WSW)
Pressure: 29.89in Gusts: 0mph
Raw Report DataCYQG 300200Z 25007KT 12SM FEW280 25/24 A2989 RMK CI1 SLP119 DENSITY ALT 1900FT
Traffic Incident Summary
Active as of:
Severity:
Category:
InformationThere was an issue retrieving the traffic information for this location. Please try a different location or try again shortly.
Advertisements
Track Severe Weather on mobile